Time;durP1;ratioP1;P1;durP2;ratioP2;P2;SDS_P1;SDS_P2;PMS_P1;PMS_P2;Temp;Humidity;BMP_temperature;BMP_pressure;BME280_temperature;BME280_humidity;BME280_pressure;Samples;Min_cycle;Max_cycle;Signal;HPM_P1;HPM_P2
2023/07/09 00:00:50;;;;;;;6.88;5.05;;;;;;;;;;5052926;28;20493;-76
2023/07/09 00:03:15;;;;;;;5.90;4.38;;;;;;;;;;5051572;28;20506;-76
2023/07/09 00:05:42;;;;;;;9.32;5.00;;;;;;;;;;5052868;28;20100;-76
2023/07/09 00:08:29;;;;;;;9.15;4.60;;;;;;;;;;5053304;28;20033;-76
2023/07/09 00:10:56;;;;;;;7.03;5.00;;;;;;;;;;5052919;28;20400;-76
2023/07/09 00:13:22;;;;;;;10.55;4.63;;;;;;;;;;5053049;28;20558;-76
2023/07/09 00:15:48;;;;;;;7.43;4.72;;;;;;;;;;5051682;28;20028;-76
2023/07/09 00:18:14;;;;;;;9.10;4.25;;;;;;;;;;5052985;28;20143;-77
2023/07/09 00:20:43;;;;;;;9.10;4.53;;;;;;;;;;5053211;28;20494;-77
2023/07/09 00:23:08;;;;;;;7.95;4.30;;;;;;;;;;5051796;28;20021;-76
2023/07/09 00:25:35;;;;;;;7.97;4.57;;;;;;;;;;5053631;28;20040;-76
2023/07/09 00:28:01;;;;;;;5.32;4.40;;;;;;;;;;5052819;28;20021;-76
2023/07/09 00:30:27;;;;;;;6.55;4.50;;;;;;;;;;5052888;28;20029;-76
2023/07/09 00:32:53;;;;;;;8.85;4.53;;;;;;;;;;5051448;28;20028;-76
2023/07/09 00:35:18;;;;;;;8.43;4.22;;;;;;;;;;5052874;28;20070;-76
2023/07/09 00:37:45;;;;;;;5.15;4.35;;;;;;;;;;5052379;28;20078;-75
2023/07/09 00:40:20;;;;;;;7.18;4.85;;;;;;;;;;5052305;28;20525;-76
2023/07/09 00:42:48;;;;;;;7.18;4.70;;;;;;;;;;5052843;28;20418;-76
2023/07/09 00:45:32;;;;;;;6.28;4.70;;;;;;;;;;5052543;28;20103;-75
2023/07/09 00:48:06;;;;;;;6.85;4.43;;;;;;;;;;5052622;28;20028;-76
2023/07/09 00:50:49;;;;;;;;;;;;;;;;;;5053242;28;20053;-76
2023/07/09 00:53:23;;;;;;;8.00;4.20;;;;;;;;;;5053337;28;19909;-76
2023/07/09 00:55:56;;;;;;;9.55;4.70;;;;;;;;;;5051398;28;20036;-76
2023/07/09 00:58:26;;;;;;;10.30;5.03;;;;;;;;;;5053073;28;20399;-76
2023/07/09 01:00:58;;;;;;;8.23;4.68;;;;;;;;;;5052485;28;20107;-76
2023/07/09 01:03:32;;;;;;;5.63;4.53;;;;;;;;;;5052562;28;20035;-76
2023/07/09 01:05:58;;;;;;;7.47;4.57;;;;;;;;;;5053763;28;20490;-76
2023/07/09 01:08:24;;;;;;;6.53;4.70;;;;;;;;;;5056177;28;20025;-76
2023/07/09 01:10:49;;;;;;;6.90;4.70;;;;;;;;;;5054739;28;20480;-76
2023/07/09 01:13:16;;;;;;;5.70;4.43;;;;;;;;;;5055882;28;20445;-76
2023/07/09 01:15:41;;;;;;;9.23;4.38;;;;;;;;;;5055808;28;20380;-77
2023/07/09 01:18:08;;;;;;;8.88;4.47;;;;;;;;;;5055746;28;20035;-77
2023/07/09 01:20:33;;;;;;;7.30;4.28;;;;;;;;;;5056217;28;20071;-76
2023/07/09 01:23:00;;;;;;;5.97;4.38;;;;;;;;;;5054495;28;20406;-76
2023/07/09 01:25:27;;;;;;;6.88;4.35;;;;;;;;;;5055640;28;20025;-76
2023/07/09 01:27:54;;;;;;;8.23;4.80;;;;;;;;;;5055581;28;20028;-77
2023/07/09 01:30:28;;;;;;;7.15;4.10;;;;;;;;;;5055740;28;20475;-76
2023/07/09 01:32:57;;;;;;;6.70;4.47;;;;;;;;;;5054297;28;20163;-77
2023/07/09 01:35:22;;;;;;;5.93;4.32;;;;;;;;;;5055747;28;20020;-77
2023/07/09 01:37:48;;;;;;;5.90;4.43;;;;;;;;;;5054487;28;20104;-77
2023/07/09 01:40:17;;;;;;;10.18;4.55;;;;;;;;;;5052631;28;20036;-78
2023/07/09 01:42:42;;;;;;;7.57;4.68;;;;;;;;;;5053331;28;20112;-76
2023/07/09 01:45:10;;;;;;;8.40;4.30;;;;;;;;;;5054360;28;20113;-77
2023/07/09 01:47:36;;;;;;;5.25;4.50;;;;;;;;;;5052527;28;20543;-77
2023/07/09 01:50:01;;;;;;;5.47;4.30;;;;;;;;;;5055414;28;20043;-76
2023/07/09 01:52:31;;;;;;;7.13;4.50;;;;;;;;;;5054437;28;20050;-76
2023/07/09 01:54:57;;;;;;;10.45;4.55;;;;;;;;;;5055224;28;20029;-76
2023/07/09 01:57:24;;;;;;;6.20;4.40;;;;;;;;;;5053766;28;20032;-76
2023/07/09 01:59:51;;;;;;;6.97;4.65;;;;;;;;;;5055221;28;20029;-76
2023/07/09 02:02:20;;;;;;;6.40;4.72;;;;;;;;;;5055063;28;20463;-76
2023/07/09 02:04:50;;;;;;;5.90;4.43;;;;;;;;;;5054920;28;20017;-76
2023/07/09 02:07:16;;;;;;;8.73;4.57;;;;;;;;;;5055053;28;20106;-75
2023/07/09 02:09:42;;;;;;;8.50;4.60;;;;;;;;;;5054715;28;20136;-76
2023/07/09 02:12:09;;;;;;;8.13;4.38;;;;;;;;;;5054837;28;20512;-76
2023/07/09 02:14:35;;;;;;;6.97;4.60;;;;;;;;;;5054964;28;20106;-76
2023/07/09 02:17:00;;;;;;;7.28;4.57;;;;;;;;;;5054659;28;20041;-76
2023/07/09 02:19:25;;;;;;;7.97;4.68;;;;;;;;;;5054890;28;20029;-76
2023/07/09 02:21:51;;;;;;;7.03;4.57;;;;;;;;;;5054706;28;20487;-76
2023/07/09 02:24:16;;;;;;;6.67;4.57;;;;;;;;;;5053275;28;21657;-75
2023/07/09 02:26:41;;;;;;;6.20;4.67;;;;;;;;;;5054593;28;20258;-76
2023/07/09 02:29:06;;;;;;;6.70;4.30;;;;;;;;;;5054599;28;20266;-76
2023/07/09 02:31:33;;;;;;;6.38;4.50;;;;;;;;;;5054319;28;20254;-76
2023/07/09 02:33:59;;;;;;;8.73;4.43;;;;;;;;;;5053134;28;20024;-76
2023/07/09 02:36:24;;;;;;;7.28;4.43;;;;;;;;;;5054610;28;20421;-76
2023/07/09 02:38:49;;;;;;;6.85;4.45;;;;;;;;;;5054556;28;20021;-76
2023/07/09 02:41:15;;;;;;;5.87;4.60;;;;;;;;;;5053915;28;20456;-76
2023/07/09 02:43:40;;;;;;;6.72;4.88;;;;;;;;;;5054318;28;20741;-76
2023/07/09 02:46:05;;;;;;;7.43;4.68;;;;;;;;;;5053908;28;20070;-75
2023/07/09 02:48:31;;;;;;;10.50;4.60;;;;;;;;;;5052882;28;20021;-76
2023/07/09 02:50:56;;;;;;;7.30;5.00;;;;;;;;;;5054596;28;20273;-76
2023/07/09 02:53:21;;;;;;;8.03;4.67;;;;;;;;;;5054327;28;20262;-75
2023/07/09 02:55:46;;;;;;;8.00;4.40;;;;;;;;;;5052512;28;20266;-76
2023/07/09 02:58:12;;;;;;;6.43;4.70;;;;;;;;;;5052792;28;20258;-76
2023/07/09 03:00:37;;;;;;;6.33;4.60;;;;;;;;;;5053815;28;20483;-76
2023/07/09 03:03:02;;;;;;;7.30;4.90;;;;;;;;;;5053796;28;20829;-76
2023/07/09 03:05:27;;;;;;;15.60;4.80;;;;;;;;;;5053822;28;20728;-76
2023/07/09 03:07:52;;;;;;;6.93;4.70;;;;;;;;;;5053769;28;20733;-76
2023/07/09 03:10:18;;;;;;;7.57;4.80;;;;;;;;;;5053688;28;20266;-76
2023/07/09 03:12:43;;;;;;;7.03;4.77;;;;;;;;;;5052422;28;20254;-75
2023/07/09 03:15:09;;;;;;;5.90;4.50;;;;;;;;;;5053464;28;20281;-75
2023/07/09 03:17:34;;;;;;;9.90;4.90;;;;;;;;;;5053647;28;20257;-75
2023/07/09 03:19:59;;;;;;;6.93;4.63;;;;;;;;;;5053669;28;20052;-76
2023/07/09 03:22:24;;;;;;;7.30;4.90;;;;;;;;;;5053589;28;20329;-76
2023/07/09 03:24:49;;;;;;;7.20;4.53;;;;;;;;;;5053340;28;20624;-77
2023/07/09 03:27:15;;;;;;;6.95;4.85;;;;;;;;;;5051741;28;20645;-76
2023/07/09 03:29:40;;;;;;;6.67;4.57;;;;;;;;;;5053482;28;20087;-76
2023/07/09 03:32:06;;;;;;;6.83;4.63;;;;;;;;;;5053455;28;20255;-76
2023/07/09 03:34:31;;;;;;;8.73;4.82;;;;;;;;;;5053181;28;20262;-76
2023/07/09 03:36:56;;;;;;;6.37;4.60;;;;;;;;;;5053509;28;20115;-76
2023/07/09 03:39:21;;;;;;;5.70;4.20;;;;;;;;;;5052074;28;20329;-76
2023/07/09 03:41:46;;;;;;;7.73;4.50;;;;;;;;;;5053012;28;20293;-76
2023/07/09 03:44:12;;;;;;;6.00;4.63;;;;;;;;;;5051830;28;20257;-76
2023/07/09 03:46:38;;;;;;;8.43;4.68;;;;;;;;;;5053239;28;20257;-76
2023/07/09 03:49:03;;;;;;;7.10;5.18;;;;;;;;;;5053188;28;20017;-76
2023/07/09 03:51:28;;;;;;;7.45;5.03;;;;;;;;;;5052635;28;20029;-76
2023/07/09 03:53:53;;;;;;;6.93;4.80;;;;;;;;;;5053233;28;20043;-76
2023/07/09 03:56:19;;;;;;;7.00;4.87;;;;;;;;;;5053388;28;20296;-77
2023/07/09 03:58:44;;;;;;;7.97;4.80;;;;;;;;;;5051757;28;20257;-76
2023/07/09 04:01:09;;;;;;;6.23;4.63;;;;;;;;;;5051851;28;20277;-76
2023/07/09 04:03:34;;;;;;;7.25;4.93;;;;;;;;;;5053161;28;20261;-76
2023/07/09 04:06:00;;;;;;;11.47;5.17;;;;;;;;;;5053150;28;20472;-76
2023/07/09 04:08:28;;;;;;;9.80;5.13;;;;;;;;;;5051573;28;20756;-76
2023/07/09 04:10:56;;;;;;;6.78;4.93;;;;;;;;;;5051766;28;20258;-77
2023/07/09 04:13:21;;;;;;;8.70;4.95;;;;;;;;;;5052797;28;20498;-76
2023/07/09 04:15:47;;;;;;;6.47;4.93;;;;;;;;;;5051424;28;20033;-76
2023/07/09 04:18:12;;;;;;;5.97;4.68;;;;;;;;;;5051444;28;20029;-76
2023/07/09 04:20:38;;;;;;;7.00;5.20;;;;;;;;;;5053310;28;20100;-76
2023/07/09 04:23:03;;;;;;;7.07;5.13;;;;;;;;;;5051468;28;20367;-76
2023/07/09 04:25:28;;;;;;;6.47;5.00;;;;;;;;;;5052709;28;20115;-76
2023/07/09 04:27:53;;;;;;;7.18;4.40;;;;;;;;;;5052897;28;20302;-76
2023/07/09 04:30:19;;;;;;;6.95;5.05;;;;;;;;;;5052750;28;20021;-77
2023/07/09 04:32:46;;;;;;;7.63;4.50;;;;;;;;;;5052829;28;20024;-76
2023/07/09 04:35:13;;;;;;;8.00;4.60;;;;;;;;;;5052757;28;20107;-76
2023/07/09 04:37:40;;;;;;;7.00;5.07;;;;;;;;;;5052945;28;20029;-76
2023/07/09 04:40:10;;;;;;;7.85;5.03;;;;;;;;;;5053982;28;20033;-76
2023/07/09 04:42:36;;;;;;;7.93;4.80;;;;;;;;;;5056534;28;20112;-75
2023/07/09 04:45:01;;;;;;;5.35;4.38;;;;;;;;;;5056662;28;20032;-76
2023/07/09 04:47:27;;;;;;;7.13;4.65;;;;;;;;;;5056591;28;20032;-76
2023/07/09 04:49:52;;;;;;;7.05;4.95;;;;;;;;;;5056606;28;20060;-76
2023/07/09 04:52:17;;;;;;;5.90;4.70;;;;;;;;;;5056723;28;20083;-76
2023/07/09 04:54:44;;;;;;;13.05;5.28;;;;;;;;;;5056175;28;20262;-76
2023/07/09 04:57:10;;;;;;;6.63;4.82;;;;;;;;;;5056276;28;20028;-76
2023/07/09 04:59:35;;;;;;;6.45;4.78;;;;;;;;;;5054922;28;20080;-75
2023/07/09 05:02:01;;;;;;;6.35;4.68;;;;;;;;;;5054829;28;20480;-76
2023/07/09 05:04:26;;;;;;;10.43;4.67;;;;;;;;;;5055919;28;20035;-76
2023/07/09 05:06:51;;;;;;;8.93;4.63;;;;;;;;;;5056200;28;20290;-76
2023/07/09 05:09:16;;;;;;;5.30;4.77;;;;;;;;;;5056474;28;20265;-76
2023/07/09 05:11:41;;;;;;;9.07;4.60;;;;;;;;;;5055882;28;20254;-76
2023/07/09 05:14:07;;;;;;;6.87;5.00;;;;;;;;;;5055993;28;20269;-76
2023/07/09 05:16:32;;;;;;;7.90;4.70;;;;;;;;;;5055937;28;20266;-76
2023/07/09 05:18:57;;;;;;;8.13;4.80;;;;;;;;;;5055642;28;20261;-76
2023/07/09 05:21:22;;;;;;;8.70;4.90;;;;;;;;;;5055979;28;20278;-76
2023/07/09 05:23:48;;;;;;;9.38;4.78;;;;;;;;;;5055567;28;20027;-76
2023/07/09 05:26:13;;;;;;;7.20;4.57;;;;;;;;;;5054439;28;20484;-77
2023/07/09 05:28:38;;;;;;;5.82;4.65;;;;;;;;;;5054248;28;20025;-76
2023/07/09 05:31:04;;;;;;;8.40;4.78;;;;;;;;;;5054211;28;20033;-76
2023/07/09 05:33:29;;;;;;;8.15;4.88;;;;;;;;;;5055708;28;20503;-76
2023/07/09 05:35:56;;;;;;;9.07;4.68;;;;;;;;;;5055595;28;20029;-76
2023/07/09 05:38:21;;;;;;;4.68;3.95;;;;;;;;;;5055839;28;20090;-76
2023/07/09 05:40:46;;;;;;;8.27;4.45;;;;;;;;;;5055209;28;20495;-76
2023/07/09 05:43:11;;;;;;;8.73;4.97;;;;;;;;;;5055455;28;20112;-76
2023/07/09 05:45:40;;;;;;;10.98;5.05;;;;;;;;;;5054178;28;20293;-76
2023/07/09 05:48:06;;;;;;;8.52;4.93;;;;;;;;;;5055241;28;20488;-76
2023/07/09 05:50:33;;;;;;;11.20;4.70;;;;;;;;;;5054965;28;20036;-76
2023/07/09 05:52:58;;;;;;;8.02;4.40;;;;;;;;;;5055491;28;20029;-76
2023/07/09 05:55:24;;;;;;;6.33;4.40;;;;;;;;;;5054743;28;20090;-76
2023/07/09 05:57:50;;;;;;;4.88;4.20;;;;;;;;;;5053452;28;20250;-76
2023/07/09 06:00:15;;;;;;;6.90;4.72;;;;;;;;;;5055143;28;20032;-77
2023/07/09 06:02:40;;;;;;;8.00;5.00;;;;;;;;;;5054863;28;20029;-76
2023/07/09 06:05:09;;;;;;;8.80;4.60;;;;;;;;;;5054595;28;20029;-76
2023/07/09 06:07:34;;;;;;;8.02;4.80;;;;;;;;;;5054641;28;20546;-76
2023/07/09 06:09:59;;;;;;;7.32;4.68;;;;;;;;;;5053237;28;20120;-76
2023/07/09 06:12:25;;;;;;;8.17;4.70;;;;;;;;;;5055100;28;20024;-76
2023/07/09 06:14:51;;;;;;;5.72;4.57;;;;;;;;;;5053128;28;20349;-76
2023/07/09 06:17:16;;;;;;;6.90;4.35;;;;;;;;;;5053140;28;20115;-76
2023/07/09 06:19:41;;;;;;;6.53;4.70;;;;;;;;;;5054398;28;20032;-76
2023/07/09 06:22:06;;;;;;;12.80;4.77;;;;;;;;;;5053179;28;20079;-76
2023/07/09 06:24:32;;;;;;;8.10;4.53;;;;;;;;;;5054325;28;20264;-76
2023/07/09 06:26:57;;;;;;;6.73;4.27;;;;;;;;;;5052982;28;20082;-76
2023/07/09 06:29:23;;;;;;;8.50;4.57;;;;;;;;;;5054100;28;20253;-76
2023/07/09 06:31:48;;;;;;;6.95;4.65;;;;;;;;;;5054058;28;20636;-76
2023/07/09 06:34:13;;;;;;;5.87;4.63;;;;;;;;;;5054067;28;20071;-76
2023/07/09 06:36:38;;;;;;;7.57;4.67;;;;;;;;;;5054086;28;20258;-77
2023/07/09 06:39:05;;;;;;;5.93;4.47;;;;;;;;;;5054422;28;20257;-77
2023/07/09 06:41:32;;;;;;;7.93;4.40;;;;;;;;;;5053656;28;20036;-77
2023/07/09 06:43:57;;;;;;;5.43;4.18;;;;;;;;;;5052552;28;20044;-75
2023/07/09 06:46:22;;;;;;;6.60;4.07;;;;;;;;;;5053936;28;20041;-77
2023/07/09 06:48:48;;;;;;;7.85;4.15;;;;;;;;;;5053689;28;20262;-77
2023/07/09 06:51:13;;;;;;;6.57;4.43;;;;;;;;;;5052838;28;20501;-77
2023/07/09 06:53:39;;;;;;;7.63;4.40;;;;;;;;;;5054074;28;20265;-77
2023/07/09 06:56:05;;;;;;;5.70;4.20;;;;;;;;;;5052414;28;20333;-77
2023/07/09 06:58:33;;;;;;;6.30;4.45;;;;;;;;;;5053706;28;20063;-77
2023/07/09 07:01:03;;;;;;;8.98;4.57;;;;;;;;;;5052239;28;20021;-77
2023/07/09 07:03:28;;;;;;;6.32;4.20;;;;;;;;;;5052947;28;20064;-77
2023/07/09 07:05:54;;;;;;;5.13;4.15;;;;;;;;;;5053866;28;20028;-77
2023/07/09 07:08:22;;;;;;;6.85;4.28;;;;;;;;;;5053675;28;20111;-77
2023/07/09 07:10:49;;;;;;;5.07;4.28;;;;;;;;;;5053396;28;20484;-77
2023/07/09 07:13:14;;;;;;;5.60;4.07;;;;;;;;;;5053506;28;20037;-77
2023/07/09 07:15:40;;;;;;;6.43;4.07;;;;;;;;;;5051922;28;20016;-77
2023/07/09 07:18:06;;;;;;;6.47;4.20;;;;;;;;;;5051959;28;20024;-77
2023/07/09 07:20:32;;;;;;;6.32;4.03;;;;;;;;;;5053255;28;20064;-77
2023/07/09 07:22:57;;;;;;;8.77;4.07;;;;;;;;;;5052971;28;20061;-77
2023/07/09 07:25:23;;;;;;;7.40;4.53;;;;;;;;;;5053089;28;20526;-77
2023/07/09 07:27:48;;;;;;;5.78;4.35;;;;;;;;;;5053085;28;20024;-77
2023/07/09 07:30:14;;;;;;;6.63;4.27;;;;;;;;;;5053591;28;20059;-77
2023/07/09 07:32:47;;;;;;;5.45;4.15;;;;;;;;;;5053383;28;20250;-77
2023/07/09 07:35:13;;;;;;;8.13;4.55;;;;;;;;;;5052265;28;20013;-77
2023/07/09 07:37:39;;;;;;;9.30;4.50;;;;;;;;;;5053259;28;20067;-77
2023/07/09 07:40:05;;;;;;;5.50;4.20;;;;;;;;;;5052879;28;20507;-77
2023/07/09 07:42:31;;;;;;;12.40;4.25;;;;;;;;;;5052912;28;20118;-77
2023/07/09 07:44:56;;;;;;;7.50;4.37;;;;;;;;;;5052895;28;20511;-77
2023/07/09 07:47:21;;;;;;;8.77;4.25;;;;;;;;;;5052825;28;20671;-77
2023/07/09 07:49:47;;;;;;;5.97;3.95;;;;;;;;;;5051624;28;20403;-77
2023/07/09 07:52:12;;;;;;;8.38;4.13;;;;;;;;;;5053285;28;20361;-77
2023/07/09 07:54:38;;;;;;;7.37;4.10;;;;;;;;;;5052836;28;20384;-77
2023/07/09 07:57:03;;;;;;;7.22;4.28;;;;;;;;;;5052715;28;20488;-77
2023/07/09 07:59:29;;;;;;;6.88;4.18;;;;;;;;;;5052637;28;20029;-77
2023/07/09 08:01:54;;;;;;;5.28;4.07;;;;;;;;;;5052589;28;20071;-77
2023/07/09 08:04:19;;;;;;;6.30;4.30;;;;;;;;;;5052687;28;20094;-77
2023/07/09 08:06:45;;;;;;;8.50;4.37;;;;;;;;;;5052727;28;20033;-77
2023/07/09 08:09:10;;;;;;;5.88;4.40;;;;;;;;;;5051363;28;20098;-75
2023/07/09 08:11:35;;;;;;;5.60;4.07;;;;;;;;;;5053253;28;20032;-77
2023/07/09 08:14:00;;;;;;;6.30;4.10;;;;;;;;;;5052487;28;20025;-76
2023/07/09 08:16:26;;;;;;;9.77;4.07;;;;;;;;;;5056787;28;20057;-77
2023/07/09 08:18:54;;;;;;;7.93;4.10;;;;;;;;;;5056844;28;20028;-77
2023/07/09 08:21:19;;;;;;;8.00;4.10;;;;;;;;;;5056731;28;20074;-77
2023/07/09 08:23:45;;;;;;;7.85;4.28;;;;;;;;;;5055414;28;20021;-77
2023/07/09 08:26:10;;;;;;;5.95;3.97;;;;;;;;;;5056514;28;20044;-77
2023/07/09 08:28:37;;;;;;;6.72;4.50;;;;;;;;;;5056507;28;20029;-77
2023/07/09 08:31:03;;;;;;;5.35;4.13;;;;;;;;;;5055128;28;20017;-77
2023/07/09 08:33:29;;;;;;;6.47;3.92;;;;;;;;;;5056909;28;20025;-76
2023/07/09 08:35:55;;;;;;;4.88;4.05;;;;;;;;;;5056277;28;20493;-77
2023/07/09 08:38:21;;;;;;;9.48;4.25;;;;;;;;;;5056490;28;20108;-77
2023/07/09 08:40:55;;;;;;;5.82;4.30;;;;;;;;;;5056282;28;20060;-77
2023/07/09 08:43:33;;;;;;;8.52;4.20;;;;;;;;;;5056393;28;20388;-77
2023/07/09 08:46:17;;;;;;;5.60;4.35;;;;;;;;;;5056348;28;20032;-77
2023/07/09 08:48:46;;;;;;;11.95;4.88;;;;;;;;;;5055768;28;20033;-77
2023/07/09 08:51:21;;;;;;;5.65;4.32;;;;;;;;;;5054903;28;20033;-77
2023/07/09 08:53:55;;;;;;;6.13;3.92;;;;;;;;;;5056478;28;20017;-77
2023/07/09 08:56:21;;;;;;;4.88;3.78;;;;;;;;;;5056156;28;20024;-77
2023/07/09 08:58:49;;;;;;;5.22;3.80;;;;;;;;;;5054826;28;20025;-77
2023/07/09 09:01:36;;;;;;;4.93;3.70;;;;;;;;;;5055992;28;20108;-77
2023/07/09 09:04:13;;;;;;;7.43;3.85;;;;;;;;;;5055845;28;20029;-75
2023/07/09 09:06:42;;;;;;;5.20;3.88;;;;;;;;;;5056090;28;20063;-77
2023/07/09 09:09:29;;;;;;;6.05;3.50;;;;;;;;;;5054519;28;20029;-77
2023/07/09 09:12:14;;;;;;;5.60;3.55;;;;;;;;;;5054642;28;20017;-77
2023/07/09 09:14:43;;;;;;;7.38;3.65;;;;;;;;;;5056717;28;20384;-77
2023/07/09 09:17:14;;;;;;;6.00;3.25;;;;;;;;;;5037687;28;20091;-77
2023/07/09 09:19:54;;;;;;;6.05;3.20;;;;;;;;;;5055936;28;20029;-77
2023/07/09 09:22:41;;;;;;;4.30;3.20;;;;;;;;;;5055768;28;20070;-77
2023/07/09 09:25:30;;;;;;;4.80;3.30;;;;;;;;;;5055278;28;20213;-76
2023/07/09 09:27:56;;;;;;;4.40;2.95;;;;;;;;;;5054259;28;20048;-77
2023/07/09 09:30:24;;;;;;;7.10;3.17;;;;;;;;;;5055612;28;20028;-77
2023/07/09 09:32:59;;;;;;;4.78;3.13;;;;;;;;;;5055368;28;20036;-77
2023/07/09 09:35:33;;;;;;;4.75;2.97;;;;;;;;;;5055655;28;20036;-77
2023/07/09 09:37:59;;;;;;;4.78;3.08;;;;;;;;;;5055520;28;20017;-78
2023/07/09 09:40:27;;;;;;;9.85;3.10;;;;;;;;;;5055243;28;20033;-78
2023/07/09 09:42:55;;;;;;;5.05;2.85;;;;;;;;;;5053957;28;20395;-77
2023/07/09 09:45:27;;;;;;;6.80;2.90;;;;;;;;;;5055119;28;20055;-77
2023/07/09 09:47:58;;;;;;;5.00;3.00;;;;;;;;;;5053931;28;20027;-77
2023/07/09 09:50:26;;;;;;;4.75;3.00;;;;;;;;;;5054012;28;20124;-77
2023/07/09 09:52:51;;;;;;;5.70;2.90;;;;;;;;;;5054985;28;20024;-77
2023/07/09 09:55:19;;;;;;;9.45;3.10;;;;;;;;;;5055170;28;20033;-77
2023/07/09 09:57:53;;;;;;;4.43;2.72;;;;;;;;;;5055702;28;20086;-76
2023/07/09 10:00:24;;;;;;;6.90;2.95;;;;;;;;;;5055182;28;20021;-77
2023/07/09 10:02:50;;;;;;;5.40;3.10;;;;;;;;;;5053635;28;20025;-77
2023/07/09 10:05:16;;;;;;;5.35;2.90;;;;;;;;;;5054813;28;20023;-77
2023/07/09 10:07:59;;;;;;;4.07;2.90;;;;;;;;;;5054846;28;20025;-77
2023/07/09 10:10:28;;;;;;;4.57;3.17;;;;;;;;;;5055116;28;20482;-77
2023/07/09 10:13:05;;;;;;;4.47;3.20;;;;;;;;;;5054807;28;20122;-77
2023/07/09 10:15:45;;;;;;;5.90;3.25;;;;;;;;;;5054677;28;20044;-77
2023/07/09 10:18:38;;;;;;;3.90;3.05;;;;;;;;;;5054959;28;20029;-77
2023/07/09 10:21:09;;;;;;;4.82;2.90;;;;;;;;;;5054678;28;20028;-77
2023/07/09 10:23:50;;;;;;;4.20;2.78;;;;;;;;;;5055084;28;20082;-77
2023/07/09 10:26:21;;;;;;;4.90;2.97;;;;;;;;;;5054442;28;20025;-77
2023/07/09 10:28:52;;;;;;;4.07;3.03;;;;;;;;;;5054753;28;20080;-77
2023/07/09 10:31:28;;;;;;;4.35;2.80;;;;;;;;;;5054695;28;20029;-77
2023/07/09 10:34:21;;;;;;;4.45;3.15;;;;;;;;;;5053237;28;20020;-77
2023/07/09 10:37:16;;;;;;;5.82;3.35;;;;;;;;;;5054228;28;20040;-77
2023/07/09 10:39:47;;;;;;;7.90;3.13;;;;;;;;;;5054449;28;20067;-76
2023/07/09 10:42:26;;;;;;;3.63;2.88;;;;;;;;;;5052856;28;20025;-76
2023/07/09 10:45:09;;;;;;;6.03;3.47;;;;;;;;;;5054415;28;20100;-77
2023/07/09 10:47:47;;;;;;;6.05;3.20;;;;;;;;;;5053450;28;20029;-78
2023/07/09 10:50:26;;;;;;;5.20;3.05;;;;;;;;;;5054556;28;20025;-77
2023/07/09 10:52:57;;;;;;;4.28;3.10;;;;;;;;;;5054142;28;20025;-77
2023/07/09 10:55:41;;;;;;;7.47;3.20;;;;;;;;;;5054035;28;20029;-77
2023/07/09 10:58:35;;;;;;;4.85;2.92;;;;;;;;;;5054543;28;20025;-77
2023/07/09 11:01:00;;;;;;;5.13;3.00;;;;;;;;;;5054563;28;20487;-77
2023/07/09 11:03:56;;;;;;;4.35;3.03;;;;;;;;;;5053925;28;20167;-77
2023/07/09 11:06:39;;;;;;;4.05;3.28;;;;;;;;;;5053858;28;20025;-77
2023/07/09 11:09:29;;;;;;;6.30;3.35;;;;;;;;;;5053877;28;20021;-77
2023/07/09 11:11:57;;;;;;;5.75;3.20;;;;;;;;;;5054674;28;20494;-77
2023/07/09 11:14:40;;;;;;;6.90;3.20;;;;;;;;;;5052188;28;20029;-75
2023/07/09 11:17:12;;;;;;;12.50;3.13;;;;;;;;;;5052707;28;20029;-77
2023/07/09 11:19:46;;;;;;;3.95;3.20;;;;;;;;;;5055516;28;20499;-77
2023/07/09 11:22:22;;;;;;;5.10;3.22;;;;;;;;;;5053161;28;20029;-77
2023/07/09 11:25:04;;;;;;;5.35;3.15;;;;;;;;;;5053358;28;20025;-76
2023/07/09 11:27:29;;;;;;;6.10;3.30;;;;;;;;;;5053551;28;20108;-76
2023/07/09 11:30:16;;;;;;;6.80;3.03;;;;;;;;;;5051818;28;20103;-76
2023/07/09 11:32:46;;;;;;;4.63;3.17;;;;;;;;;;5052922;28;20036;-76
2023/07/09 11:35:21;;;;;;;5.03;3.03;;;;;;;;;;5052888;28;20051;-76
2023/07/09 11:37:46;;;;;;;5.07;2.72;;;;;;;;;;5053284;28;20028;-76
2023/07/09 11:40:13;;;;;;;4.50;3.23;;;;;;;;;;5053007;28;20025;-76
2023/07/09 11:42:56;;;;;;;8.60;3.10;;;;;;;;;;5053091;28;20564;-76
2023/07/09 11:45:28;;;;;;;6.82;3.03;;;;;;;;;;5052958;28;20086;-76
2023/07/09 11:48:26;;;;;;;5.35;2.90;;;;;;;;;;5053027;28;20082;-76
2023/07/09 11:50:55;;;;;;;4.35;2.92;;;;;;;;;;5051461;28;20395;-76
2023/07/09 11:53:22;;;;;;;4.25;2.88;;;;;;;;;;5052854;28;20032;-77
2023/07/09 11:55:48;;;;;;;5.43;2.70;;;;;;;;;;5052780;28;20051;-75
2023/07/09 11:58:15;;;;;;;3.72;2.70;;;;;;;;;;5053054;28;20539;-75
2023/07/09 12:00:49;;;;;;;7.00;3.25;;;;;;;;;;5051403;28;20028;-76
2023/07/09 12:03:23;;;;;;;4.05;2.50;;;;;;;;;;5051383;28;20025;-75
2023/07/09 12:05:54;;;;;;;3.53;2.42;;;;;;;;;;5052811;28;20045;-76
2023/07/09 12:08:36;;;;;;;5.75;2.60;;;;;;;;;;5052897;28;20052;-76
2023/07/09 12:11:01;;;;;;;5.43;2.90;;;;;;;;;;5052728;28;20036;-76
2023/07/09 12:13:27;;;;;;;4.95;2.70;;;;;;;;;;5052544;28;20033;-76
2023/07/09 12:15:52;;;;;;;6.40;2.70;;;;;;;;;;5052677;28;20541;-76
2023/07/09 12:18:17;;;;;;;4.60;3.00;;;;;;;;;;5053070;28;20445;-76
2023/07/09 12:20:51;;;;;;;4.00;2.85;;;;;;;;;;5052597;28;20027;-76
2023/07/09 12:23:21;;;;;;;6.90;3.00;;;;;;;;;;5051811;28;20112;-75
2023/07/09 12:25:49;;;;;;;3.88;2.80;;;;;;;;;;5052501;28;20025;-76
2023/07/09 12:28:15;;;;;;;4.50;2.85;;;;;;;;;;5052471;28;20123;-76
2023/07/09 12:30:44;;;;;;;4.32;2.92;;;;;;;;;;5051449;28;20112;-76
2023/07/09 12:33:09;;;;;;;4.72;2.97;;;;;;;;;;5052399;28;20032;-76
2023/07/09 12:35:35;;;;;;;6.05;2.65;;;;;;;;;;5052654;28;20032;-76
2023/07/09 12:38:00;;;;;;;8.68;3.08;;;;;;;;;;5052925;28;20025;-77
2023/07/09 12:40:29;;;;;;;4.25;2.70;;;;;;;;;;5053481;28;20033;-74
2023/07/09 12:42:57;;;;;;;4.55;2.83;;;;;;;;;;5051007;28;20029;-76
2023/07/09 12:45:23;;;;;;;6.07;3.00;;;;;;;;;;5050746;28;20171;-76
2023/07/09 12:47:50;;;;;;;5.10;3.28;;;;;;;;;;5052533;28;20446;-76
2023/07/09 12:50:30;;;;;;;5.35;2.92;;;;;;;;;;5052527;28;20499;-76
2023/07/09 12:53:00;;;;;;;8.10;3.33;;;;;;;;;;5052293;28;20021;-76
2023/07/09 12:55:26;;;;;;;5.07;3.30;;;;;;;;;;5052410;28;20032;-76
2023/07/09 12:57:56;;;;;;;6.22;3.00;;;;;;;;;;5051438;28;20086;-76
2023/07/09 13:00:22;;;;;;;6.88;3.35;;;;;;;;;;5052524;28;20383;-76
2023/07/09 13:02:55;;;;;;;7.60;3.30;;;;;;;;;;5055771;28;20111;-77
2023/07/09 13:05:24;;;;;;;5.15;3.35;;;;;;;;;;5055947;28;20021;-77
2023/07/09 13:07:51;;;;;;;4.47;3.20;;;;;;;;;;5054907;28;20025;-76
2023/07/09 13:10:21;;;;;;;5.13;3.25;;;;;;;;;;5055819;28;20541;-77
2023/07/09 13:12:50;;;;;;;5.68;3.08;;;;;;;;;;5056236;28;20029;-76
2023/07/09 13:15:30;;;;;;;6.53;3.10;;;;;;;;;;5055756;28;20102;-76
2023/07/09 13:18:04;;;;;;;4.78;3.05;;;;;;;;;;5054512;28;20041;-76
2023/07/09 13:20:31;;;;;;;7.93;3.03;;;;;;;;;;5054363;28;20121;-77
2023/07/09 13:22:57;;;;;;;5.70;3.25;;;;;;;;;;5055872;28;20035;-77
2023/07/09 13:25:23;;;;;;;3.78;2.83;;;;;;;;;;5054215;28;20029;-76
2023/07/09 13:27:49;;;;;;;8.27;3.03;;;;;;;;;;5053617;28;20029;-76
2023/07/09 13:30:14;;;;;;;4.78;2.95;;;;;;;;;;5055702;28;20033;-76
2023/07/09 13:32:40;;;;;;;5.00;3.07;;;;;;;;;;5055354;28;20391;-77
2023/07/09 13:35:14;;;;;;;4.95;2.88;;;;;;;;;;5055955;28;20258;-77
2023/07/09 13:37:39;;;;;;;6.93;3.35;;;;;;;;;;5054760;28;20071;-77
2023/07/09 13:40:05;;;;;;;3.93;3.00;;;;;;;;;;5055509;28;20496;-77
2023/07/09 13:42:30;;;;;;;10.85;2.97;;;;;;;;;;5055163;28;20519;-76
2023/07/09 13:44:56;;;;;;;5.83;2.90;;;;;;;;;;5055667;28;20033;-77
2023/07/09 13:47:21;;;;;;;4.57;3.13;;;;;;;;;;5055255;28;20029;-76
2023/07/09 13:49:46;;;;;;;5.13;3.10;;;;;;;;;;5055468;28;20029;-76
2023/07/09 13:52:19;;;;;;;5.78;3.50;;;;;;;;;;5055598;28;20021;-76
2023/07/09 13:54:47;;;;;;;8.27;3.30;;;;;;;;;;5055357;28;20403;-76
2023/07/09 13:57:15;;;;;;;7.28;3.20;;;;;;;;;;5055414;28;20071;-76
2023/07/09 13:59:40;;;;;;;8.00;3.30;;;;;;;;;;5055130;28;20032;-76
2023/07/09 14:02:31;;;;;;;6.88;3.00;;;;;;;;;;5055157;28;20403;-77
2023/07/09 14:04:57;;;;;;;3.88;2.60;;;;;;;;;;5053689;28;20406;-76
2023/07/09 14:07:31;;;;;;;4.05;3.00;;;;;;;;;;5053714;28;20479;-76
2023/07/09 14:09:57;;;;;;;5.20;3.30;;;;;;;;;;5053778;28;20549;-77
2023/07/09 14:12:23;;;;;;;5.50;3.17;;;;;;;;;;5054663;28;20021;-77
2023/07/09 14:14:51;;;;;;;6.47;3.28;;;;;;;;;;5054202;28;20047;-76
2023/07/09 14:17:16;;;;;;;6.20;3.08;;;;;;;;;;5054869;28;20021;-77
2023/07/09 14:19:41;;;;;;;5.53;2.90;;;;;;;;;;5054774;28;20091;-77
2023/07/09 14:22:30;;;;;;;4.57;3.30;;;;;;;;;;5053548;28;20032;-77
2023/07/09 14:24:57;;;;;;;4.63;3.05;;;;;;;;;;5055003;28;20750;-76
2023/07/09 14:27:22;;;;;;;6.03;3.00;;;;;;;;;;5053313;28;20025;-77
2023/07/09 14:29:47;;;;;;;5.10;3.15;;;;;;;;;;5054845;28;20063;-76
2023/07/09 14:32:36;;;;;;;3.63;2.90;;;;;;;;;;5054409;28;20013;-76
2023/07/09 14:35:09;;;;;;;7.68;3.03;;;;;;;;;;5055072;28;20331;-76
2023/07/09 14:37:34;;;;;;;7.00;3.33;;;;;;;;;;5054278;28;20468;-76
2023/07/09 14:39:59;;;;;;;4.07;3.00;;;;;;;;;;5054108;28;20033;-76
2023/07/09 14:42:25;;;;;;;16.80;12.27;;;;;;;;;;5054717;28;20028;-76
2023/07/09 14:44:50;;;;;;;5.67;3.10;;;;;;;;;;5053888;28;20029;-76
2023/07/09 14:47:18;;;;;;;6.43;3.07;;;;;;;;;;5053873;28;20349;-76
2023/07/09 14:49:44;;;;;;;7.85;2.83;;;;;;;;;;5054245;28;20751;-76
2023/07/09 14:52:13;;;;;;;5.88;3.38;;;;;;;;;;5054152;28;20025;-76